ESSA/ARN METAR and TAF weather

Enter ICAO airport designator
Station Type Date Time Source
ESSA METAR 2022/06/27 07:50 UTC NOAA

ESSA 270750Z 15009KT CAVOK 26/15 Q1019 NOSIG


Station Type Date Time Source
ESSA Decoded METAR 2022/06/27 07:50 UTC NOAA

Stockholm / Arlanda, Sweden (ESSA) 59-39N 017-57E 61M
Jun 27, 2022 - 03:50 AM EDT / 2022.06.27 0750 UTC
Wind: from the SSE (150 degrees) at 10 MPH (9 KT):0
Visibility: greater than 7 mile(s):0
Temperature: 78 F (26 C)
Dew Point: 59 F (15 C)
Relative Humidity: 50%
Pressure (altimeter): 30.09 in. Hg (1019 hPa)
ob: ESSA 270750Z 15009KT CAVOK 26/15 Q1019 NOSIG
cycle: 8

Station Type Date Time Source
ESSA TAF 2022/06/27 06:21 UTC NOAA

TAF ESSA 270530Z 2706/2806 16009KT CAVOK

Example: see airport list